Al Udeid, Qatar

4:26 PM AST on February 06, 2016 (GMT +0300)
al jazi doha | | Change Station
CLOSE
Current Station
Personal Weather Station
Location: Doha, DOHA
Elevation: 7 ft
Nearby Weather Stations

Elev 7 ft 25.33 °N, 51.51 °E | Updated 26 seconds ago

Clear
Clear
73.6 °F
Feels Like 76 °F
N
0.0
Wind Variable Wind from WSW
Gusts 0.0 mph

Today
High -- | Low -- °F
--% Chance of Precip.
Yesterday
High -- | Low -- °F
Precip. -- in
Pressure 30.04 in
Visibility -9999.0 miles
Clouds
Heat Index 76 °F
Dew Point 38 °F
Humidity 28%
Rainfall 0.00 in
Snow Depth Not available.
6:15 AM 5:22 PM
Waning Crescent, 5% visible
METAR OTBD 061300Z 10006KT CAVOK 22/07 Q1017 NOSIG
Pressure 30.04 in
Visibility -9999.0 miles
Clouds
Heat Index 76 °F
Dew Point 38 °F
Humidity 28%
Rainfall 0.00 in
Snow Depth Not available.
6:15 AM 5:22 PM
Waning Crescent, 5% visible
METAR OTBD 061300Z 10006KT CAVOK 22/07 Q1017 NOSIG

10-Day Weather Forecast

No radar image for this location.
×

Almanac

Astronomy

Feb. 06, 2016 Rise Set
Actual Time
Civil Twilight
Nautical Twilight
Astronomical Twilight
Moon
Length of Visible Light
Length of Day
Tomorrow will be .
, % of the Moon is Illuminated

Today's Extremes

Country Highs Country Lows

Community

WunderPhotos

Upload Photos

1,890,965 photos uploaded!

WunderBlog® & News

Nearby

Air Quality

  Air Quality AQ Index Pollutant
Not available.

Snow Depth

Station Depth Elevation

Earthquake Activity

City Distance Mag. Time & Date
Minimum magnitude displayed is 2.5.

Coastal Water Temperatures

Place Temperature

Stations

Nearby Weather Stations

Station Location Temp. Windchill Dew Point Humidity Wind Precip. Elev Updated Type